Salt Wells, Nevada
Current Conditions -  °F | °C
As of 4:56 AM on Wednesday 22 Oct 2014 (Local Time) from KNFL Reporting Station
Clear Clear  
Wind Chill: 37°   Ceiling: Unl
Heat Index: 40°   Visibility: 10mi
Dew Point: 20°   Wind: 5mph
Humidity: 45%   Direction: 210°SSW
Pressure: 30.11"   Gusts: NA
Location:  39.5809°N, 118.333°W
Report Text: KNFL 221156Z AUTO 21004KT 10SM CLR 04/M07 A3011 RMK AO2 SLP161 T00441067 10061 20028 53001
Loading
Personal Weather Stations






























Interactive Weather Map
Tropical Storm Tracking
New forecast layout! Learn more

10-Day Weather Forecast

Advertisements
Track Severe Weather on mobile